Terminal Aerodrome Forecast
Issued by NWS

Home | Current Version | Previous Version | Text Only | Print | Product List | Glossary On
Versions: 1 2 3 4 5 6 7 8 9 10 11 12 13 14 15 16 17 18 19 20 21 22 23 24 25
000
FTUS42 KMHX 201100
TAFOAJ
TAF
KOAJ 201127Z 2012/2112 02012G19KT P6SM -RADZ SCT020 OVC035
      TEMPO 2013/2015 BKN020
     FM201500 02017G27KT 6SM -RADZ OVC015
     FM210500 01015G25KT P6SM OVC008
      AMD LTD TO CLD VIS AND WIND=

USA.gov is the U.S. government's official web portal to all federal, state and local government web resources and services.